• Join FlightAware (Why Join?)
  • Login
  • US Flag 
01:49PM EDT


 

Airport Tracker/Info


-or-


 

Live Flight TrackerFlight Track Log ✈ UAL4295 ✈ 11-Sep-2013 ✈ KCMH - KIAH

Flight Track Log - Related Links

Times and Time Zones

All times are in EDT time to prevent confusion due to time zone crossing. See the UAL4295 flight status page for this flight to view local times or setup timezone preferences in your user account.

Time Position Orientation Groundspeed Altitude Reporting Facility
EDT Latitude Longitude Course Direction KTS MPH feet Rate Location/Type
05:00PM 39.9997 -82.8003 91° East 193 222 2,900  Level Indianapolis Center
05:01PM 40.0003 -82.7644 89° East 205 236 3,600 1,560 Climbing Indianapolis Center
05:01PM 39.9844 -82.7186 114° Southeast 242 278 4,500 1,920 Climbing Indianapolis Center
05:02PM 39.7861 -83.2102 270° West  Level Estimated
05:02PM 39.9503 -82.7117 171° South 224 258 5,600  Level Indianapolis Center
05:03PM 39.7156 -83.3157 270° West  Level Estimated
05:03PM 39.9328 -82.7822 252° West 227 261 6,900  Level Indianapolis Center
05:04PM 39.7840 -83.4236 310° West  Level FlightAware Approximate
05:04PM 39.9339 -82.8683 271° West 238 274 8,400  Level Indianapolis Center
05:05PM 39.7099 -83.5324 270° West  Level Estimated
05:05PM 39.9250 -82.9606 263° West 254 292 9,900  Level Indianapolis Center
05:06PM 39.9128 -83.0594 261° West 273 314 10,900 960 Climbing Indianapolis Center
05:07PM 39.8747 -83.1589 244° Southwest 302 348 12,000 1,320 Climbing Indianapolis Center
05:08PM 39.8275 -83.2800 243° Southwest 311 358 13,700 1,500 Climbing Indianapolis Center
05:09PM 39.7875 -83.3789 242° Southwest 307 353 15,200 1,440 Climbing Indianapolis Center
05:10PM 39.7478 -83.4794 243° Southwest 304 350 16,700 1,200 Climbing Indianapolis Center
05:11PM 39.7092 -83.5786 243° Southwest 303 349 17,700 960 Climbing Indianapolis Center
05:12PM 39.6692 -83.6803 243° Southwest 311 358 18,700 960 Climbing Indianapolis Center
05:13PM 39.6269 -83.7844 242° Southwest 322 371 19,700 960 Climbing Indianapolis Center
05:14PM 39.5844 -83.8900 242° Southwest 331 381 20,700 900 Climbing Indianapolis Center
05:15PM 39.5414 -83.9994 243° Southwest 338 389 21,600 900 Climbing Indianapolis Center
05:16PM 39.4967 -84.1078 242° Southwest 342 394 22,600 1,020 Climbing Indianapolis Center
05:17PM 39.4447 -84.2386 243° Southwest 342 394 23,800 1,020 Climbing Indianapolis Center
05:18PM 39.4008 -84.3461 242° Southwest 339 390 24,800 900 Climbing Indianapolis Center
05:19PM 39.3567 -84.4544 242° Southwest 341 392 25,700 900 Climbing Indianapolis Center
05:20PM 39.3133 -84.5594 242° Southwest 334 384 26,700 960 Climbing Indianapolis Center
05:21PM 39.2700 -84.6656 242° Southwest 334 384 27,700 960 Climbing Indianapolis Center
05:22PM 39.2269 -84.7700 242° Southwest 332 382 28,700 1,020 Climbing Indianapolis Center
05:23PM 39.1764 -84.8931 242° Southwest 332 382 29,800 960 Climbing Indianapolis Center
05:24PM 39.1331 -84.9969 242° Southwest 330 380 30,700 780 Climbing Indianapolis Center
05:25PM 39.0892 -85.1000 241° Southwest 330 380 31,500 720 Climbing Indianapolis Center
05:26PM 39.0458 -85.2044 242° Southwest 330 380 32,200 720 Climbing Indianapolis Center
05:27PM 39.0011 -85.3103 241° Southwest 335 386 33,000 780 Climbing Indianapolis Center
05:28PM 38.9569 -85.4136 241° Southwest 332 382 33,800 660 Climbing Indianapolis Center
05:29PM 38.9133 -85.5172 242° Southwest 330 380 34,400 540 Climbing Indianapolis Center
05:30PM 38.8694 -85.6200 241° Southwest 329 379 35,000 540 Climbing Indianapolis Center
05:32PM 38.8169 -85.7447 242° Southwest 330 380 35,600 480 Climbing Indianapolis Center
05:33PM 38.7733 -85.8481 242° Southwest 329 379 36,000 180 Climbing Indianapolis Center
05:34PM 38.7258 -85.9583 241° Southwest 338 389 36,000  Level Indianapolis Center
05:35PM 38.6775 -86.0678 241° Southwest 350 403 36,000  Level Indianapolis Center
05:36PM 38.6289 -86.1836 242° Southwest 366 421 36,000  Level Indianapolis Center
05:37PM 38.5769 -86.3017 241° Southwest 377 434 36,000  Level Indianapolis Center
05:38PM 38.5233 -86.4236 241° Southwest 389 448 36,000  Level Indianapolis Center
05:39PM 38.4689 -86.5500 241° Southwest 402 463 36,000  Level Indianapolis Center
05:40PM 38.4006 -86.7042 241° Southwest 415 478 36,000  Level Indianapolis Center
05:41PM 38.3425 -86.8358 241° Southwest 420 483 36,000  Level Indianapolis Center
05:42PM 38.2881 -86.9583 241° Southwest 426 490 36,000  Level Indianapolis Center
05:43PM 38.2300 -87.0931 241° Southwest 432 497 36,000  Level Indianapolis Center
05:44PM 38.1556 -87.2433 238° Southwest 435 501 36,000  Level Indianapolis Center
05:45PM 38.0708 -87.3475 224° Southwest 425 489 36,000  Level Indianapolis Center
05:46PM 37.9794 -87.4431 220° Southwest 425 489 36,000  Level Indianapolis Center
05:47PM 37.8886 -87.5403 220° Southwest 426 490 36,000  Level Indianapolis Center
05:48PM 37.7961 -87.6358 219° Southwest 426 490 36,000  Level Indianapolis Center
05:49PM 37.7011 -87.7381 220° Southwest 427 491 36,000  Level Indianapolis Center
05:50PM 37.6169 -87.8456 225° Southwest 427 491 36,000  Level Indianapolis Center
05:52PM 37.4319 -88.0769 225° Southwest 432 497 36,000  Level Indianapolis Center
05:53PM 37.3367 -88.1714 218° Southwest 433 498 36,000  Level Indianapolis Center
05:54PM 37.2431 -88.2683 220° Southwest 433 498 36,000  Level Indianapolis Center
05:55PM 37.1469 -88.3619 218° Southwest 434 499 36,000  Level Indianapolis Center
05:56PM 37.0486 -88.4536 217° Southwest 436 502 36,000  Level Indianapolis Center
05:57PM 36.9472 -88.5425 215° Southwest 439 505 36,000  Level Indianapolis Center
05:58PM 36.8467 -88.6300 215° Southwest 439 505 36,000  Level Indianapolis Center
05:59PM 36.7444 -88.7517 224° Southwest 438 504 36,000  Level Memphis Center
06:00PM 36.6539 -88.8569 223° Southwest 443 510 36,000  Level Memphis Center
06:01PM 36.5633 -88.9592 222° Southwest 443 510 36,000  Level Memphis Center
06:02PM 36.4853 -89.0483 223° Southwest 438 504 36,000  Level Memphis Center
06:03PM 36.3922 -89.1428 219° Southwest 438 504 36,000  Level Memphis Center
06:04PM 36.2975 -89.2678 227° Southwest 438 504 36,000  Level Memphis Center
06:05PM 36.2089 -89.3614 220° Southwest 461 531 36,000  Level Memphis Center
06:06PM 36.1200 -89.4628 223° Southwest 455 524 36,000  Level Memphis Center
06:07PM 36.0289 -89.5664 223° Southwest 450 518 36,000  Level Memphis Center
06:08PM 35.9378 -89.6700 223° Southwest 444 511 36,000  Level Memphis Center
06:09PM 35.8486 -89.7706 222° Southwest 449 517 36,000  Level Memphis Center
06:10PM 35.7553 -89.8761 223° Southwest 449 517 36,000  Level Memphis Center
06:11PM 35.6617 -89.9839 223° Southwest 438 504 36,000  Level Memphis Center
06:12PM 35.5722 -90.0892 224° Southwest 438 504 36,000  Level Memphis Center
06:13PM 35.4808 -90.1939 223° Southwest 449 517 36,000  Level Memphis Center
06:14PM 35.3869 -90.2933 221° Southwest 449 517 36,000  Level Memphis Center
06:15PM 35.2953 -90.3953 222° Southwest 444 511 36,000  Level Memphis Center
06:16PM 35.2158 -90.4842 222° Southwest 444 511 36,000  Level Memphis Center
06:17PM 35.1239 -90.5881 223° Southwest 444 511 36,000  Level Memphis Center
06:18PM 35.0342 -90.6867 222° Southwest 444 511 36,000  Level Memphis Center
06:19PM 34.9419 -90.7828 221° Southwest 439 505 36,000  Level Memphis Center
06:20PM 34.8497 -90.8833 222° Southwest 439 505 36,000  Level Memphis Center
06:21PM 34.7597 -90.9814 222° Southwest 439 505 36,000  Level Memphis Center
06:22PM 34.6672 -91.0819 222° Southwest 439 505 36,000  Level Memphis Center
06:23PM 34.5750 -91.1794 221° Southwest 439 505 36,000  Level Memphis Center
06:24PM 34.4822 -91.2819 222° Southwest 444 511 36,000  Level Memphis Center
06:25PM 34.3814 -91.3889 221° Southwest 444 511 36,000  Level Memphis Center
06:26PM 34.2867 -91.4883 221° Southwest 449 517 36,000  Level Memphis Center
06:27PM 34.1939 -91.5825 220° Southwest 444 511 36,000  Level Memphis Center
06:28PM 34.1011 -91.6842 222° Southwest 444 511 36,000  Level Memphis Center
06:29PM 34.0186 -91.7731 222° Southwest 439 505 36,000  Level Memphis Center
06:30PM 33.9278 -91.8742 223° Southwest 444 511 36,000  Level Memphis Center
06:33PM 33.6942 -92.1111 220° Southwest 445 512 36,000  Level Fort Worth Center
06:34PM 33.6000 -92.2092 221° Southwest 445 512 36,000  Level Fort Worth Center
06:35PM 33.4925 -92.2828 210° Southwest 445 512 36,000  Level Fort Worth Center
06:36PM 33.3706 -92.3122 191° South 437 503 36,000  Level Fort Worth Center
06:37PM 33.2528 -92.3414 192° South 437 503 36,000  Level Fort Worth Center
06:38PM 33.1372 -92.3728 193° South 444 511 36,000  Level Fort Worth Center
06:39PM 33.0114 -92.4047 192° South 452 520 36,000  Level Fort Worth Center
06:40PM 32.8894 -92.4361 192° South 453 521 36,000  Level Fort Worth Center
06:41PM 32.7694 -92.4675 192° South 447 514 36,000  Level Fort Worth Center
06:42PM 32.6475 -92.4964 191° South 447 514 36,000  Level Fort Worth Center
06:44PM 32.4192 -92.5614 194° South 436 502 36,000  Level Houston Center
06:45PM 32.3025 -92.5928 193° South 434 499 36,000  Level Houston Center
06:46PM 32.1831 -92.6222 192° South 438 504 36,000  Level Houston Center
06:47PM 32.0644 -92.6536 193° South 438 504 36,000 -60 Level Houston Center
06:48PM 31.9506 -92.7017 200° South 458 527 35,900  Descending Houston Center
06:49PM 31.8372 -92.8100 219° Southwest 446 513 36,000  Climbing Houston Center
06:50PM 31.7425 -92.9006 219° Southwest 441 507 36,000  Level Houston Center
06:51PM 31.6475 -92.9903 219° Southwest 439 505 36,000  Level Houston Center
06:52PM 31.5531 -93.0800 219° Southwest 439 505 36,000  Level Houston Center
06:53PM 31.4600 -93.1731 220° Southwest 439 505 36,000 -60 Level Houston Center
06:54PM 31.3453 -93.2817 219° Southwest 444 511 35,900 -540 Descending Houston Center
06:55PM 31.2522 -93.3700 219° Southwest 434 499 34,900 -1,320 Descending Houston Center
06:56PM 31.1619 -93.4556 219° Southwest 421 484 33,200 -1,800 Descending Houston Center
06:57PM 31.0714 -93.5428 220° Southwest 422 486 31,300 -1,860 Descending Houston Center
06:58PM 30.9797 -93.6294 219° Southwest 425 489 29,400 -2,100 Descending Houston Center
06:59PM 30.8653 -93.7383 219° Southwest 444 511 27,000 -2,100 Descending Houston Center
07:00PM 30.7708 -93.8272 219° Southwest 442 509 25,100 -1,920 Descending Houston Center
07:01PM 30.6778 -93.9142 219° Southwest 435 501 23,100 -2,100 Descending Houston Center
07:02PM 30.5903 -93.9975 219° Southwest 420 483 20,800 -2,520 Descending Houston Center
07:02PM 30.5692 -94.0169 218° Southwest 397 457 20,300 -2,400 Descending Houston Center
07:03PM 30.4981 -94.0822 218° Southwest 404 465 18,600 -1,860 Descending Houston Center
07:03PM 30.5033 -94.0792 27° Northeast 410 472 18,600 -2,160 Level Houston Center
07:04PM 30.4078 -94.1672 218° Southwest 398 458 16,400 -2,340 Descending Houston Center
07:04PM 30.3997 -94.1750 220° Southwest 402 463 16,200 -2,100 Descending Houston Center
07:05PM 30.3328 -94.2378 219° Southwest 396 456 14,500 -2,160 Descending Houston Center
07:05PM 30.3161 -94.2547 221° Southwest 394 453 14,000 -1,860 Descending Houston Center
07:06PM 30.2347 -94.3283 218° Southwest 357 411 12,300 -1,680 Descending Houston Center
07:06PM 30.2353 -94.3286 337° Northwest 379 436 12,300 -660 Level Houston Center
07:07PM 30.1897 -94.4067 236° Southwest 341 392 11,800 -600 Descending Houston Center
07:08PM 30.1894 -94.4225 269° West 346 398 11,700 -900 Descending Houston Center
07:08PM 30.1717 -94.5203 258° West 321 369 10,800 -900 Descending Houston Center
07:09PM 30.1714 -94.5219 259° West 329 379 10,800 -1,860 Level Houston Center
07:09PM 30.1539 -94.6194 258° West 302 348 8,900 -2,160 Descending Houston Center
07:10PM 30.1508 -94.6344 257° West 307 353 8,600 -1,860 Descending Houston Center
07:11PM 30.1347 -94.7258 259° West 298 343 6,900 -1,800 Descending Houston Center
07:11PM 30.1356 -94.7292 286° West 302 348 6,800 -900 Descending Houston Center
07:11PM 30.1217 -94.8094 259° West 293 337 6,100 -780 Descending Houston Center
07:12PM 30.1197 -94.8206 259° West 294 338 6,000 -120 Descending Houston Center
07:13PM 30.1056 -94.9122 260° West 291 335 6,000  Level Houston Center
07:14PM 30.1108 -95.0042 274° West 291 335 6,000  Level Houston Center
07:14PM 30.1119 -95.0036 23° Northeast 288 331 6,000  Level Houston Center
07:14PM 30.1103 -95.0864 269° West 282 325 6,000  Level Houston Center
07:15PM 30.1117 -95.1117 274° West 284 327 6,000  Level Houston Center
07:16PM 30.1083 -95.1808 267° West 283 326 6,000  Level Houston Center
07:16PM 30.1094 -95.2025 273° West 284 327 6,000  Level Houston Center
07:17PM 30.1106 -95.2725 271° West 288 331 6,000  Level Houston Center
07:17PM 30.1117 -95.2939 273° West 286 329 6,000  Level Houston Center
07:18PM 30.1111 -95.3689 270° West 286 329 6,000 60 Level Houston Center
07:18PM 30.1117 -95.3850 272° West 286 329 6,100 -540 Climbing Houston Center
07:19PM 30.1083 -95.4561 267° West 237 273 5,400 -720 Descending Houston Center
07:19PM 30.1103 -95.4617 292° West 249 287 5,400 -1,200 Level Houston Center
07:20PM 30.1092 -95.5333 269° West 233 268 4,200 -1,380 Descending Houston Center
07:20PM 30.1103 -95.5492 275° West 233 268 4,000 -840 Descending Houston Center
07:21PM 30.0822 -95.5850 228° Southwest 205 236 3,400 -720 Descending Houston Center
07:21PM 30.0714 -95.5897 201° Southwest 214 246 3,300 -420 Descending Houston Center
07:22PM 30.0292 -95.5767 165° South 196 226 3,000 -300 Descending Houston Center
07:22PM 30.0222 -95.5678 132° Southeast 196 226 3,000 -120 Level Houston Center
07:23PM 30.0058 -95.5289 116° Southeast 169 194 2,900 -240 Descending Houston Center
07:23PM 30.0069 -95.5169 84° East 193 222 2,800 -720 Descending Houston Center
07:24PM 30.0069 -95.4708 90° East 171 197 2,200 -780 Descending Houston Center
07:24PM 30.0072 -95.4622 88° East 181 208 2,000 -900 Descending Houston Center
07:25PM 30.0067 -95.4225 91° East 130 150 1,300 -780 Descending Houston Center
07:25PM 30.0078 -95.4144 81° East 169 194 1,200 -840 Descending Houston Center
07:26PM 30.0069 -95.3792 92° East 135 155 500 -600 Descending Houston Center
07:26PM 30.0081 -95.3678 84° East 155 178 600 240 Climbing Houston Center